createdAt,value
2022-09-11T00:02:39.000Z,0.60
2022-09-11T00:05:42.264Z,0.90
2022-09-11T00:08:44.472Z,0.60
2022-09-11T00:11:46.611Z,0.50
2022-09-11T00:14:48.759Z,0.60
2022-09-11T00:17:51.403Z,0.70
2022-09-11T00:20:55.282Z,0.70
2022-09-11T00:23:57.971Z,0.60
2022-09-11T00:27:01.042Z,0.77
2022-09-11T00:30:03.710Z,1.00
2022-09-11T00:33:05.909Z,0.73
2022-09-11T00:36:12.801Z,0.70
2022-09-11T00:39:15.043Z,0.80
2022-09-11T00:42:17.520Z,0.90
2022-09-11T00:45:26.131Z,0.80
2022-09-11T00:48:35.425Z,1.00
2022-09-11T00:51:37.916Z,0.80
2022-09-11T00:54:50.611Z,0.80
2022-09-11T00:58:01.982Z,0.75
2022-09-11T01:04:07.986Z,1.35
2022-09-11T01:07:12.714Z,1.25
2022-09-11T01:10:15.044Z,0.82
2022-09-11T01:13:17.567Z,0.90
2022-09-11T01:16:36.292Z,0.70
2022-09-11T01:20:19.799Z,0.90
2022-09-11T01:23:27.779Z,0.73
2022-09-11T01:26:59.021Z,0.93
2022-09-11T01:30:07.200Z,0.98
2022-09-11T01:33:23.775Z,1.00
2022-09-11T01:36:30.225Z,1.00
2022-09-11T01:39:41.572Z,0.80
2022-09-11T01:45:47.555Z,1.02
2022-09-11T01:48:55.469Z,0.90
2022-09-11T01:52:01.631Z,0.80
2022-09-11T01:55:13.355Z,0.88
2022-09-11T01:58:29.417Z,0.70
2022-09-11T02:01:34.466Z,0.80
2022-09-11T02:04:41.004Z,0.82
2022-09-11T02:07:54.355Z,1.02
2022-09-11T02:11:07.172Z,0.80
2022-09-11T02:14:18.164Z,0.80
2022-09-11T02:17:26.666Z,0.90
2022-09-11T02:20:29.590Z,0.75
2022-09-11T02:23:31.956Z,0.90
2022-09-11T02:26:39.009Z,0.70
2022-09-11T02:29:41.154Z,1.52
2022-09-11T02:32:44.127Z,0.73
2022-09-11T02:35:50.584Z,0.75
2022-09-11T02:39:10.939Z,0.70
2022-09-11T02:42:39.230Z,1.02
2022-09-11T02:46:10.623Z,0.70
2022-09-11T02:49:39.925Z,1.10
2022-09-11T02:53:39.707Z,1.00
2022-09-11T02:56:53.793Z,0.82
2022-09-11T03:00:01.169Z,1.00
2022-09-11T03:03:04.381Z,0.90
2022-09-11T03:06:14.407Z,0.80
2022-09-11T03:09:17.975Z,1.73
2022-09-11T03:12:20.372Z,1.23
2022-09-11T03:15:23.676Z,0.70
2022-09-11T03:18:25.833Z,0.80
2022-09-11T03:21:28.019Z,0.77
2022-09-11T03:24:30.277Z,0.70
2022-09-11T03:27:32.640Z,0.82
2022-09-11T03:30:35.138Z,0.70
2022-09-11T03:33:37.539Z,0.60
2022-09-11T03:36:40.615Z,0.75
2022-09-11T03:39:43.553Z,0.73
2022-09-11T03:42:46.037Z,0.70
2022-09-11T03:45:52.042Z,0.90
2022-09-11T03:48:54.505Z,1.08
2022-09-11T03:51:57.140Z,0.80
2022-09-11T03:55:00.359Z,1.00
2022-09-11T03:58:02.549Z,0.60
2022-09-11T04:01:10.961Z,0.80
2022-09-11T04:04:13.149Z,0.82
2022-09-11T04:07:15.413Z,1.40
2022-09-11T04:10:17.951Z,1.10
2022-09-11T04:13:21.140Z,1.65
2022-09-11T04:16:23.363Z,2.90
2022-09-11T04:19:25.724Z,1.55
2022-09-11T04:22:27.855Z,1.23
2022-09-11T04:25:31.050Z,1.23
2022-09-11T04:28:33.195Z,1.10
2022-09-11T04:31:36.384Z,0.90
2022-09-11T04:34:38.672Z,0.93
2022-09-11T04:37:41.244Z,0.80
2022-09-11T04:40:43.415Z,0.80
2022-09-11T04:43:45.609Z,0.70
2022-09-11T04:46:48.050Z,0.70
2022-09-11T04:49:50.340Z,0.70
2022-09-11T04:52:52.912Z,0.80
2022-09-11T04:56:07.419Z,1.00
2022-09-11T04:59:17.498Z,0.85
2022-09-11T05:02:20.072Z,0.80
2022-09-11T05:05:22.313Z,0.80
2022-09-11T05:08:26.837Z,0.95
2022-09-11T05:11:30.199Z,0.95
2022-09-11T05:14:32.825Z,0.70
2022-09-11T05:17:35.030Z,0.77
2022-09-11T05:20:37.516Z,0.62
2022-09-11T05:23:40.156Z,0.95
2022-09-11T05:26:42.514Z,0.82
2022-09-11T05:29:44.681Z,0.77
2022-09-11T05:32:47.642Z,1.00
2022-09-11T05:35:53.311Z,0.60
2022-09-11T05:38:55.651Z,0.75
2022-09-11T05:41:57.830Z,0.60
2022-09-11T05:45:00.066Z,0.70
2022-09-11T05:48:03.417Z,0.60
2022-09-11T05:51:12.898Z,0.80
2022-09-11T05:54:15.828Z,0.50
2022-09-11T05:57:19.908Z,0.68
2022-09-11T06:00:22.057Z,0.70
2022-09-11T06:03:24.281Z,0.60
2022-09-11T06:06:26.911Z,0.60
2022-09-11T06:09:29.386Z,0.88
2022-09-11T06:12:31.591Z,0.65
2022-09-11T06:15:46.213Z,0.62
2022-09-11T06:18:50.377Z,0.70
2022-09-11T06:21:52.543Z,0.88
2022-09-11T06:24:55.440Z,0.80
2022-09-11T06:27:57.607Z,0.65
2022-09-11T06:31:01.951Z,0.85
2022-09-11T06:34:04.292Z,1.10
2022-09-11T06:37:06.402Z,0.70
2022-09-11T06:40:09.216Z,0.70
2022-09-11T06:43:12.833Z,0.85
2022-09-11T06:46:17.421Z,0.70
2022-09-11T06:49:19.971Z,0.80
2022-09-11T06:52:22.181Z,0.70
2022-09-11T06:55:24.373Z,1.15
2022-09-11T06:58:26.888Z,0.75
2022-09-11T07:01:29.290Z,0.73
2022-09-11T07:04:31.562Z,0.80
2022-09-11T07:07:33.983Z,0.77
2022-09-11T07:10:36.342Z,0.70
2022-09-11T07:13:39.730Z,0.60
2022-09-11T07:16:42.211Z,0.80
2022-09-11T07:19:44.454Z,0.68
2022-09-11T07:22:46.800Z,0.60
2022-09-11T07:25:49.781Z,0.60
2022-09-11T07:28:52.704Z,0.70
2022-09-11T07:31:57.235Z,0.82
2022-09-11T07:35:02.377Z,0.70
2022-09-11T07:38:04.544Z,0.77
2022-09-11T07:41:08.811Z,1.10
2022-09-11T07:44:10.932Z,0.77
2022-09-11T07:47:13.088Z,0.95
2022-09-11T07:50:15.882Z,0.88
2022-09-11T07:53:18.356Z,0.60
2022-09-11T07:56:24.098Z,0.60
2022-09-11T07:59:26.279Z,0.80
2022-09-11T08:02:28.457Z,1.10
2022-09-11T08:05:30.963Z,0.70
2022-09-11T08:08:33.145Z,0.90
2022-09-11T08:11:40.153Z,0.73
2022-09-11T08:14:42.767Z,0.70
2022-09-11T08:17:45.099Z,0.70
2022-09-11T08:20:47.335Z,0.80
2022-09-11T08:23:49.668Z,0.70
2022-09-11T08:26:52.040Z,0.70
2022-09-11T08:29:55.195Z,1.10
2022-09-11T08:32:57.460Z,0.85
2022-09-11T08:36:00.638Z,0.80
2022-09-11T08:39:03.481Z,0.65
2022-09-11T08:42:16.478Z,1.50
2022-09-11T08:45:20.713Z,0.70
2022-09-11T08:48:29.443Z,0.70
2022-09-11T08:51:32.018Z,0.60
2022-09-11T08:54:37.992Z,0.62
2022-09-11T08:57:58.352Z,0.50
2022-09-11T09:01:52.530Z,0.60
2022-09-11T09:05:28.803Z,0.77
2022-09-11T09:09:06.095Z,0.65
2022-09-11T09:12:29.143Z,0.80
2022-09-11T09:15:50.073Z,1.10
2022-09-11T09:19:10.154Z,1.12
2022-09-11T09:22:27.454Z,1.00
2022-09-11T09:25:31.064Z,0.77
2022-09-11T09:28:46.763Z,0.93
2022-09-11T09:31:52.596Z,0.95
2022-09-11T09:34:58.449Z,1.12
2022-09-11T09:38:00.562Z,1.05
2022-09-11T09:41:38.201Z,1.12
2022-09-11T09:45:07.627Z,0.80
2022-09-11T09:48:10.998Z,0.90
2022-09-11T09:51:14.173Z,0.90
2022-09-11T09:54:19.932Z,1.00
2022-09-11T09:57:25.170Z,0.80
2022-09-11T10:00:32.601Z,1.12
2022-09-11T10:03:34.787Z,0.80
2022-09-11T10:06:37.250Z,0.73
2022-09-11T10:09:47.218Z,1.05
2022-09-11T10:12:49.804Z,0.80
2022-09-11T10:15:53.696Z,0.70
2022-09-11T10:18:56.390Z,0.90
2022-09-11T10:22:25.861Z,0.88
2022-09-11T10:25:30.100Z,0.70
2022-09-11T10:28:33.005Z,0.82
2022-09-11T10:31:39.156Z,0.98
2022-09-11T10:34:41.967Z,0.80
2022-09-11T10:37:44.199Z,0.80
2022-09-11T10:40:58.718Z,0.80
2022-09-11T10:44:04.180Z,0.80
2022-09-11T10:47:27.668Z,0.80
2022-09-11T10:50:30.209Z,0.70
2022-09-11T10:53:51.588Z,0.70
2022-09-11T10:57:05.513Z,1.02
2022-09-11T11:00:21.653Z,0.77
2022-09-11T11:03:27.997Z,0.60
2022-09-11T11:06:54.953Z,0.70
2022-09-11T11:10:09.091Z,0.60
2022-09-11T11:13:30.887Z,0.50
2022-09-11T11:16:42.891Z,0.77
2022-09-11T11:20:11.354Z,0.70
2022-09-11T11:23:24.309Z,1.15
2022-09-11T11:27:00.831Z,0.50
2022-09-11T11:30:13.669Z,0.45
2022-09-11T11:33:39.101Z,0.52
2022-09-11T11:36:47.678Z,0.70
2022-09-11T11:40:05.159Z,0.60
2022-09-11T11:43:11.134Z,0.68
2022-09-11T11:46:38.758Z,0.60
2022-09-11T11:50:17.472Z,0.70
2022-09-11T11:53:34.623Z,0.65
2022-09-11T11:56:59.049Z,0.73
2022-09-11T12:00:09.813Z,0.70
2022-09-11T12:03:23.822Z,0.40
2022-09-11T12:06:27.075Z,0.50
2022-09-11T12:09:33.739Z,0.60
2022-09-11T12:12:54.279Z,0.50
2022-09-11T12:16:32.188Z,0.50
2022-09-11T12:19:34.441Z,0.50
2022-09-11T12:22:45.061Z,0.60
2022-09-11T12:25:51.221Z,0.50
2022-09-11T12:29:12.306Z,0.60
2022-09-11T12:32:18.187Z,0.50
2022-09-11T12:35:26.217Z,0.57
2022-09-11T12:38:38.094Z,0.45
2022-09-11T12:41:40.286Z,0.50
2022-09-11T12:44:59.720Z,1.02
2022-09-11T12:48:08.080Z,0.43
2022-09-11T12:51:38.196Z,0.95
2022-09-11T12:54:44.560Z,1.10
2022-09-11T12:57:51.427Z,0.47
2022-09-11T13:01:13.632Z,0.60
2022-09-11T13:04:17.609Z,0.45
2022-09-11T13:07:46.867Z,0.80
2022-09-11T13:10:49.145Z,0.55
2022-09-11T13:13:51.378Z,0.70
2022-09-11T13:16:57.719Z,0.50
2022-09-11T13:20:07.616Z,0.60
2022-09-11T13:23:18.426Z,0.70
2022-09-11T13:26:28.718Z,0.57
2022-09-11T13:29:32.909Z,0.60
2022-09-11T13:32:35.839Z,0.60
2022-09-11T13:35:40.293Z,1.15
2022-09-11T13:38:43.992Z,0.50
2022-09-11T13:41:49.185Z,0.70
2022-09-11T13:44:53.181Z,0.40
2022-09-11T13:47:55.659Z,0.52
2022-09-11T13:50:58.343Z,0.70
2022-09-11T13:54:22.916Z,0.60
2022-09-11T13:57:28.158Z,0.60
2022-09-11T14:00:40.571Z,0.60
2022-09-11T14:03:45.047Z,0.40
2022-09-11T14:06:47.691Z,0.40
2022-09-11T14:10:00.126Z,0.50
2022-09-11T14:13:20.846Z,0.80
2022-09-11T14:16:29.125Z,0.82
2022-09-11T14:19:33.014Z,0.70
2022-09-11T14:22:36.351Z,0.40
2022-09-11T14:25:38.558Z,0.60
2022-09-11T14:28:45.819Z,0.40
2022-09-11T14:31:48.183Z,0.50
2022-09-11T14:34:50.361Z,0.60
2022-09-11T14:37:54.512Z,0.70
2022-09-11T14:40:59.505Z,0.70
2022-09-11T14:44:02.174Z,0.60
2022-09-11T14:47:04.427Z,0.65
2022-09-11T14:50:12.036Z,0.95
2022-09-11T14:53:18.784Z,0.55
2022-09-11T14:56:20.977Z,0.60
2022-09-11T14:59:23.273Z,0.73
2022-09-11T15:02:27.726Z,1.20
2022-09-11T15:05:30.028Z,0.93
2022-09-11T15:08:32.210Z,0.70
2022-09-11T15:11:39.220Z,0.88
2022-09-11T15:14:56.338Z,0.80
2022-09-11T15:18:00.957Z,0.70
2022-09-11T15:21:03.227Z,0.60
2022-09-11T15:24:06.040Z,0.50
2022-09-11T15:27:10.375Z,0.60
2022-09-11T15:30:12.815Z,0.70
2022-09-11T15:33:14.951Z,0.60
2022-09-11T15:36:18.509Z,1.02
2022-09-11T15:39:21.253Z,0.55
2022-09-11T15:42:23.485Z,1.23
2022-09-11T15:45:26.112Z,0.62
2022-09-11T15:48:30.972Z,0.70
2022-09-11T15:51:33.500Z,1.10
2022-09-11T15:54:35.772Z,1.02
2022-09-11T15:57:39.356Z,0.73
2022-09-11T16:00:41.512Z,0.93
2022-09-11T16:03:44.149Z,1.00
2022-09-11T16:06:48.396Z,0.80
2022-09-11T16:09:50.669Z,0.82
2022-09-11T16:12:58.669Z,0.80
2022-09-11T16:16:05.203Z,1.45
2022-09-11T16:19:07.487Z,0.70
2022-09-11T16:22:10.028Z,0.80
2022-09-11T16:25:12.262Z,0.88
2022-09-11T16:28:14.452Z,0.80
2022-09-11T16:31:17.002Z,0.80
2022-09-11T16:34:19.233Z,0.73
2022-09-11T16:37:21.577Z,0.70
2022-09-11T16:40:23.808Z,0.90
2022-09-11T16:43:28.811Z,0.80
2022-09-11T16:46:31.144Z,1.00
2022-09-11T16:49:50.515Z,0.70
2022-09-11T16:52:55.848Z,0.98
2022-09-11T16:55:58.206Z,0.70
2022-09-11T16:59:00.434Z,0.80
2022-09-11T17:02:02.662Z,0.80
2022-09-11T17:05:06.103Z,0.90
2022-09-11T17:08:08.682Z,0.93
2022-09-11T17:11:13.858Z,0.70
2022-09-11T17:14:17.303Z,0.75
2022-09-11T17:17:19.577Z,1.62
2022-09-11T17:20:21.792Z,0.70
2022-09-11T17:23:23.985Z,1.00
2022-09-11T17:26:26.153Z,0.70
2022-09-11T17:29:28.343Z,0.90
2022-09-11T17:32:31.264Z,0.85
2022-09-11T17:35:33.592Z,1.20
2022-09-11T17:38:36.417Z,0.90
2022-09-11T17:41:38.661Z,1.00
2022-09-11T17:44:43.788Z,1.20
2022-09-11T17:47:46.040Z,1.37
2022-09-11T17:50:48.813Z,1.10
2022-09-11T17:53:56.535Z,1.10
2022-09-11T17:56:59.146Z,1.10
2022-09-11T18:00:04.464Z,0.95
2022-09-11T18:03:07.733Z,1.17
2022-09-11T18:06:22.617Z,1.00
2022-09-11T18:09:24.971Z,1.35
2022-09-11T18:12:28.544Z,0.77
2022-09-11T18:15:30.751Z,0.90
2022-09-11T18:18:34.685Z,0.80
2022-09-11T18:21:38.426Z,0.82
2022-09-11T18:24:40.776Z,1.00
2022-09-11T18:27:43.965Z,0.98
2022-09-11T18:30:47.425Z,0.85
2022-09-11T18:33:57.294Z,0.85
2022-09-11T18:37:00.113Z,0.80
2022-09-11T18:40:02.817Z,1.00
2022-09-11T18:43:08.915Z,1.20
2022-09-11T18:46:11.233Z,1.05
2022-09-11T18:49:14.956Z,0.80
2022-09-11T18:52:17.407Z,1.10
2022-09-11T18:55:22.842Z,1.10
2022-09-11T18:58:25.029Z,1.02
2022-09-11T19:01:33.414Z,1.30
2022-09-11T19:04:35.669Z,1.20
2022-09-11T19:07:38.399Z,1.10
2022-09-11T19:10:40.592Z,1.10
2022-09-11T19:13:44.280Z,1.15
2022-09-11T19:16:49.150Z,1.30
2022-09-11T19:19:51.884Z,0.93
2022-09-11T19:22:54.939Z,1.08
2022-09-11T19:26:02.946Z,1.08
2022-09-11T19:29:06.180Z,1.10
2022-09-11T19:32:08.572Z,1.42
2022-09-11T19:35:10.740Z,1.00
2022-09-11T19:38:13.126Z,1.00
2022-09-11T19:41:20.550Z,1.10
2022-09-11T19:44:22.809Z,1.00
2022-09-11T19:47:25.632Z,1.20
2022-09-11T19:50:27.828Z,1.10
2022-09-11T19:53:30.427Z,1.20
2022-09-11T19:56:35.230Z,1.30
2022-09-11T19:59:38.090Z,1.45
2022-09-11T20:02:40.367Z,1.77
2022-09-11T20:05:43.555Z,1.30
2022-09-11T20:08:47.577Z,1.42
2022-09-11T20:11:50.812Z,1.20
2022-09-11T20:14:53.005Z,1.23
2022-09-11T20:17:55.269Z,1.40
2022-09-11T20:21:05.364Z,1.30
2022-09-11T20:24:07.983Z,1.30
2022-09-11T20:27:10.226Z,1.48
2022-09-11T20:30:12.539Z,1.45
2022-09-11T20:33:14.717Z,1.30
2022-09-11T20:36:18.222Z,1.45
2022-09-11T20:39:20.454Z,1.30
2022-09-11T20:42:22.942Z,1.52
2022-09-11T20:45:25.085Z,1.37
2022-09-11T20:48:27.290Z,1.42
2022-09-11T20:51:29.513Z,1.58
2022-09-11T20:54:31.720Z,1.37
2022-09-11T20:57:33.906Z,1.30
2022-09-11T21:00:38.270Z,1.40
2022-09-11T21:03:45.665Z,1.27
2022-09-11T21:06:47.952Z,1.40
2022-09-11T21:09:50.250Z,1.42
2022-09-11T21:12:52.467Z,1.70
2022-09-11T21:15:55.096Z,1.20
2022-09-11T21:18:59.016Z,1.40
2022-09-11T21:22:01.167Z,1.30
2022-09-11T21:25:03.527Z,1.45
2022-09-11T21:28:05.681Z,1.30
2022-09-11T21:31:08.263Z,1.30
2022-09-11T21:34:10.817Z,2.60
2022-09-11T21:37:13.037Z,1.37
2022-09-11T21:40:15.675Z,1.40
2022-09-11T21:43:18.246Z,1.55
2022-09-11T21:46:20.619Z,1.42
2022-09-11T21:49:22.847Z,1.35
2022-09-11T21:52:25.073Z,1.55
2022-09-11T21:55:28.206Z,1.60
2022-09-11T21:58:31.021Z,1.80
2022-09-11T22:01:33.586Z,1.60
2022-09-11T22:04:35.832Z,1.70
2022-09-11T22:07:38.551Z,1.70
2022-09-11T22:10:48.862Z,1.60
2022-09-11T22:13:52.976Z,1.83
2022-09-11T22:16:55.178Z,1.80
2022-09-11T22:19:57.341Z,1.45
2022-09-11T22:23:00.297Z,1.45
2022-09-11T22:26:05.167Z,1.60
2022-09-11T22:29:08.284Z,1.33
2022-09-11T22:32:10.455Z,1.60
2022-09-11T22:35:14.985Z,1.40
2022-09-11T22:38:17.171Z,1.55
2022-09-11T22:41:20.013Z,1.33
2022-09-11T22:44:22.530Z,1.55
2022-09-11T22:47:24.809Z,1.60
2022-09-11T22:50:27.145Z,1.60
2022-09-11T22:53:30.522Z,1.70
2022-09-11T22:56:33.000Z,1.90
2022-09-11T22:59:35.165Z,1.58
2022-09-11T23:02:37.462Z,1.67
2022-09-11T23:05:58.692Z,1.50
2022-09-11T23:09:03.778Z,1.67
2022-09-11T23:12:06.122Z,1.80
2022-09-11T23:15:08.876Z,2.08
2022-09-11T23:18:11.015Z,1.73
2022-09-11T23:21:14.049Z,2.15
2022-09-11T23:24:16.963Z,1.70
2022-09-11T23:27:19.224Z,1.60
2022-09-11T23:30:21.411Z,1.80
2022-09-11T23:33:25.370Z,1.50
2022-09-11T23:36:29.434Z,2.17
2022-09-11T23:39:31.735Z,2.05
2022-09-11T23:42:33.913Z,1.58
2022-09-11T23:45:36.098Z,1.90
2022-09-11T23:48:38.734Z,2.00
2022-09-11T23:51:41.669Z,1.80
2022-09-11T23:54:43.803Z,1.77
2022-09-11T23:57:47.893Z,1.80
